Terminal Aerodrome Forecast
Issued by NWS Jacksonville, FL

Home | Current Version | Previous Version | Text Only | Print | Product List | Glossary On
Versions: 1 2 3 4 5 6 7 8 9 10 11 12 13 14 15 16 17 18 19 20
161
FTUS42 KJAX 191914 AAA
TAFGNV
TAF AMD
KGNV 191914Z 1919/2018 VRB04KT P6SM SCT025 BKN250
      TEMPO 1919/1920 BKN025
     FM192000 20005KT P6SM BKN035 BKN250
     FM200300 18003KT 6SM BR SCT250
     FM200600 22003KT 1SM BR BKN003
     FM200900 00000KT 1/4SM FG VV002
     FM201400 19006KT 3SM BR BKN007
     FM201500 20009KT P6SM SCT020 SCT250=

USA.gov is the U.S. government's official web portal to all federal, state and local government web resources and services.